Time;durP1;ratioP1;P1;durP2;ratioP2;P2;SDS_P1;SDS_P2;PMS_P1;PMS_P2;Temp;Humidity;BMP_temperature;BMP_pressure;BME280_temperature;BME280_humidity;BME280_pressure;Samples;Min_cycle;Max_cycle;Signal;HPM_P1;HPM_P2
2023/12/23 00:01:37;;;;;;;5.20;4.68;;;;;;;6.06;52.08;96185.81;10284202;28;20057;-52
2023/12/23 00:06:36;;;;;;;5.28;4.78;;;;;;;6.03;52.60;96210.75;10282895;28;20125;-51
2023/12/23 00:11:35;;;;;;;4.50;4.15;;;;;;;5.81;52.44;96185.13;10283726;28;20113;-50
2023/12/23 00:16:34;;;;;;;6.22;4.78;;;;;;;5.76;53.26;96145.72;10282858;28;20038;-50
2023/12/23 00:21:34;;;;;;;6.13;5.53;;;;;;;5.22;53.24;96122.94;10283300;28;20046;-49
2023/12/23 00:26:32;;;;;;;4.95;4.40;;;;;;;5.54;52.76;96166.47;10282389;28;20141;-52
2023/12/23 00:31:31;;;;;;;9.45;6.25;;;;;;;4.53;53.03;95966.59;10283891;28;20126;-52
2023/12/23 00:36:30;;;;;;;5.13;4.22;;;;;;;5.83;52.07;96175.69;10280930;28;20109;-50
2023/12/23 00:41:29;;;;;;;4.93;4.43;;;;;;;5.77;51.69;96144.88;10283054;28;20057;-50
2023/12/23 00:46:29;;;;;;;5.35;4.85;;;;;;;6.01;51.31;96119.78;10282470;28;20168;-49
2023/12/23 00:51:28;;;;;;;4.88;4.47;;;;;;;6.22;51.81;96104.09;10282996;28;20117;-49
2023/12/23 00:56:27;;;;;;;10.30;7.25;;;;;;;6.45;51.38;96110.75;10281821;28;20140;-51
2023/12/23 01:01:25;;;;;;;5.72;5.13;;;;;;;6.08;51.69;96172.94;10280803;28;20044;-52
2023/12/23 01:06:24;;;;;;;4.40;4.00;;;;;;;5.70;51.93;96120.06;10280695;28;20829;-51
2023/12/23 01:11:23;;;;;;;4.57;3.90;;;;;;;5.74;52.16;96142.31;10282272;28;20917;-50
2023/12/23 01:16:22;;;;;;;5.78;5.20;;;;;;;5.57;53.19;96162.19;10282532;28;20070;-51
2023/12/23 01:21:21;;;;;;;7.03;5.00;;;;;;;5.00;53.60;96045.13;10282061;28;20152;-52
2023/12/23 01:26:20;;;;;;;7.45;5.25;;;;;;;5.47;54.00;96097.06;10281354;28;20069;-52
2023/12/23 01:31:20;;;;;;;5.00;4.60;;;;;;;5.43;54.10;96097.97;10282299;28;20088;-50
2023/12/23 01:36:19;;;;;;;4.68;3.80;;;;;;;5.68;53.96;96103.78;10281237;28;20972;-50
2023/12/23 01:41:18;;;;;;;4.60;4.20;;;;;;;5.65;53.39;96065.16;10281838;28;20525;-50
2023/12/23 01:46:18;;;;;;;4.22;3.83;;;;;;;5.43;53.71;96037.06;10280944;28;20517;-50
2023/12/23 01:51:17;;;;;;;16.30;11.43;;;;;;;5.94;53.65;96078.63;10280831;28;20061;-52
2023/12/23 01:56:17;;;;;;;5.75;4.63;;;;;;;5.79;54.15;96062.47;10279253;28;20140;-51
2023/12/23 02:01:15;;;;;;;;;;;;;;;6.13;53.58;96058.69;10287323;28;20545;-49
2023/12/23 02:06:14;;;;;;;5.63;4.80;;;;;;;5.81;54.41;96020.41;10287282;28;19928;-51
2023/12/23 02:11:28;;;;;;;8.75;5.72;;;;;;;5.98;55.20;96059.72;10288017;28;20532;-50
2023/12/23 02:16:27;;;;;;;8.27;5.10;;;;;;;5.90;55.09;96025.47;10287814;28;20120;-50
2023/12/23 02:21:26;;;;;;;4.93;4.43;;;;;;;5.64;55.85;95963.97;10288195;28;20081;-51
2023/12/23 02:26:29;;;;;;;5.20;4.60;;;;;;;6.09;55.37;96015.81;10286989;28;20112;-50
2023/12/23 02:31:28;;;;;;;4.65;4.25;;;;;;;6.10;54.84;95949.72;10287911;28;20465;-52
2023/12/23 02:36:27;;;;;;;6.70;5.25;;;;;;;5.77;54.96;95938.97;10286877;28;20124;-50
2023/12/23 02:41:26;;;;;;;5.07;4.57;;;;;;;6.31;55.13;95959.75;10287531;28;20029;-51
2023/12/23 02:46:25;;;;;;;4.82;4.28;;;;;;;6.02;54.67;95915.50;10286722;28;20493;-50
2023/12/23 02:51:25;;;;;;;4.68;4.00;;;;;;;5.82;54.14;95877.16;10285296;28;20924;-50
2023/12/23 02:56:24;;;;;;;3.35;3.15;;;;;;;6.38;53.48;95992.28;10282917;28;20069;-50
2023/12/23 03:01:23;;;;;;;5.20;3.95;;;;;;;6.22;54.08;95990.78;10286514;28;20149;-51
2023/12/23 03:06:22;;;;;;;4.72;4.18;;;;;;;6.19;53.77;95952.19;10282108;28;20045;-49
2023/12/23 03:11:21;;;;;;;3.60;3.40;;;;;;;6.55;53.28;95991.22;10283334;28;20037;-50
2023/12/23 03:16:20;;;;;;;3.90;3.60;;;;;;;6.39;53.45;96008.59;10284028;28;20037;-50
2023/12/23 03:21:22;;;;;;;6.20;4.82;;;;;;;6.46;52.95;95974.16;10284045;28;20050;-49
2023/12/23 03:26:21;;;;;;;5.10;4.60;;;;;;;6.53;53.46;95990.38;10284896;28;20121;-50
2023/12/23 03:31:20;;;;;;;4.75;4.22;;;;;;;5.12;52.83;95793.06;10285800;28;20616;-50
2023/12/23 03:36:19;;;;;;;3.75;3.50;;;;;;;6.52;52.29;95952.63;10284647;28;21647;-50
2023/12/23 03:41:18;;;;;;;3.97;3.67;;;;;;;6.86;51.87;95971.00;10284706;28;20494;-51
2023/12/23 03:46:19;;;;;;;6.00;4.25;;;;;;;6.95;51.44;95968.28;10283719;28;20065;-51
2023/12/23 03:51:21;;;;;;;4.72;4.32;;;;;;;6.97;51.19;95965.69;10284821;28;20064;-50
2023/12/23 03:56:19;;;;;;;3.90;3.63;;;;;;;5.90;51.48;95798.94;10283099;28;20136;-50
2023/12/23 04:01:19;;;;;;;5.07;4.60;;;;;;;6.65;51.46;95887.13;10283009;28;20137;-49
2023/12/23 04:06:18;;;;;;;;;;;;;;;7.07;51.50;95941.44;10284086;28;20117;-52
2023/12/23 04:11:17;;;;;;;5.10;4.60;;;;;;;7.07;51.60;95920.81;10284250;28;19999;-50
2023/12/23 04:16:16;;;;;;;5.32;4.95;;;;;;;7.23;50.24;95922.25;10280171;28;20034;-52
2023/12/23 04:21:14;;;;;;;5.35;4.85;;;;;;;7.37;50.40;95928.91;10282226;28;20041;-50
2023/12/23 04:26:14;;;;;;;5.45;4.57;;;;;;;7.44;49.87;95921.06;10283119;28;20116;-52
2023/12/23 04:31:13;;;;;;;5.40;4.90;;;;;;;7.41;47.75;95858.34;10282380;28;20056;-50
2023/12/23 04:36:12;;;;;;;5.70;5.20;;;;;;;8.13;48.03;95934.38;10283469;28;20134;-51
2023/12/23 04:41:11;;;;;;;4.18;3.95;;;;;;;8.18;47.22;95929.13;10282883;28;20117;-50
2023/12/23 04:46:10;;;;;;;4.60;4.30;;;;;;;8.05;46.94;95913.84;10279897;28;20105;-50
2023/12/23 04:51:09;;;;;;;4.93;4.63;;;;;;;8.20;46.28;95937.66;10284731;28;20033;-50
2023/12/23 04:56:08;;;;;;;4.30;4.03;;;;;;;8.68;45.99;96002.13;10281293;28;20030;-50
2023/12/23 05:01:07;;;;;;;6.85;5.65;;;;;;;8.50;45.67;95949.06;10282414;28;20113;-51
2023/12/23 05:06:06;;;;;;;4.47;4.10;;;;;;;8.72;45.44;95952.06;10280855;28;20040;-51
2023/12/23 05:11:05;;;;;;;5.28;4.78;;;;;;;8.69;45.83;95957.28;10282458;28;20065;-50
2023/12/23 05:16:05;;;;;;;4.60;4.20;;;;;;;7.48;45.15;95782.50;10280260;28;20069;-52
2023/12/23 05:21:04;;;;;;;5.35;4.82;;;;;;;8.40;45.54;95935.50;10282809;28;20120;-48
2023/12/23 05:26:03;;;;;;;;;;;;;;;8.79;44.98;96018.28;10281845;28;20109;-50
2023/12/23 05:31:02;;;;;;;5.55;4.50;;;;;;;8.58;44.99;95970.47;10282492;28;19921;-48
2023/12/23 05:36:01;;;;;;;6.68;5.25;;;;;;;9.03;44.43;96032.38;10287688;28;20068;-48
2023/12/23 05:41:00;;;;;;;7.45;5.45;;;;;;;8.88;45.39;96040.47;10289808;28;20117;-49
2023/12/23 05:45:59;;;;;;;6.15;5.13;;;;;;;8.44;44.82;95942.31;10287752;28;20057;-49
2023/12/23 05:50:58;;;;;;;5.95;4.43;;;;;;;8.82;44.87;96017.34;10288188;28;20061;-49
2023/12/23 05:55:57;;;;;;;6.35;4.50;;;;;;;8.86;44.83;96034.50;10287074;28;20040;-49
2023/12/23 06:00:56;;;;;;;6.72;4.57;;;;;;;8.97;44.76;96016.16;10288484;28;20032;-50
2023/12/23 06:05:55;;;;;;;5.95;4.95;;;;;;;8.87;45.02;96012.91;10288661;28;20578;-49
2023/12/23 06:10:54;;;;;;;5.00;4.22;;;;;;;8.78;44.99;96000.19;10288490;28;20481;-50
2023/12/23 06:15:54;;;;;;;;;;;;;;;8.96;45.00;96068.78;10288461;28;20072;-49
2023/12/23 06:20:53;;;;;;;6.07;5.10;;;;;;;8.81;45.06;96042.38;10287171;28;20024;-50
2023/12/23 06:25:52;;;;;;;5.63;4.25;;;;;;;8.92;45.43;96016.25;10288190;28;20014;-51
2023/12/23 06:30:51;;;;;;;22.90;12.23;;;;;;;9.15;45.39;96064.91;10287288;28;20030;-51
2023/12/23 06:35:50;;;;;;;;;;;;;;;9.15;45.31;96062.31;10285961;28;20064;-49
2023/12/23 06:40:49;;;;;;;244.63;115.57;;;;;;;9.08;45.21;96063.34;10285078;28;19993;-49
2023/12/23 06:45:48;;;;;;;8.25;7.03;;;;;;;9.26;44.75;96070.69;10284268;28;20032;-48
2023/12/23 06:50:47;;;;;;;11.65;9.70;;;;;;;9.46;45.06;96074.56;10285706;28;20026;-50
2023/12/23 06:55:46;;;;;;;10.80;6.43;;;;;;;8.79;45.13;96004.50;10286152;28;20073;-52
2023/12/23 07:00:45;;;;;;;8.57;5.90;;;;;;;9.30;45.39;96071.47;10285156;28;20038;-49
2023/12/23 07:05:44;;;;;;;6.35;5.30;;;;;;;9.33;46.51;96126.63;10284825;28;20398;-49
2023/12/23 07:10:43;;;;;;;6.15;5.65;;;;;;;8.82;46.98;96093.19;10285056;28;20022;-49
2023/12/23 07:15:42;;;;;;;5.45;5.05;;;;;;;9.09;46.75;96158.19;10284947;28;20034;-51
2023/12/23 07:20:42;;;;;;;5.90;5.30;;;;;;;8.88;46.90;96144.81;10293084;28;20054;-48
2023/12/23 07:25:41;;;;;;;7.55;6.75;;;;;;;9.06;46.75;96125.47;10284556;28;20601;-49
2023/12/23 07:30:44;;;;;;;6.03;5.40;;;;;;;9.24;47.81;96177.72;10273638;28;20722;-51
2023/12/23 07:35:43;;;;;;;6.18;5.68;;;;;;;9.16;47.97;96201.19;10283924;28;20061;-50
2023/12/23 07:40:42;;;;;;;6.03;5.63;;;;;;;8.71;49.78;96196.00;10283624;28;20113;-51
2023/12/23 07:45:42;;;;;;;5.05;4.65;;;;;;;8.35;50.53;96185.47;10300743;28;20117;-50
2023/12/23 07:50:41;;;;;;;22.48;14.32;;;;;;;8.96;49.86;96230.03;10284013;28;20129;-49
2023/12/23 07:55:40;;;;;;;10.13;6.85;;;;;;;9.04;49.40;96204.00;10283763;28;20117;-50
2023/12/23 08:00:39;;;;;;;7.57;6.63;;;;;;;8.94;50.02;96231.78;10280496;28;20153;-49
2023/12/23 08:05:38;;;;;;;5.00;4.57;;;;;;;8.76;50.69;96250.22;10277063;28;20172;-49
2023/12/23 08:10:40;;;;;;;5.85;5.30;;;;;;;8.89;51.48;96277.59;10282752;28;20033;-50
2023/12/23 08:15:39;;;;;;;4.95;4.55;;;;;;;9.17;51.79;96310.72;10281221;28;20129;-49
2023/12/23 08:20:38;;;;;;;4.80;4.40;;;;;;;9.01;52.38;96263.56;10281182;28;20052;-55
2023/12/23 08:25:37;;;;;;;6.05;5.25;;;;;;;9.44;52.16;96292.13;10281025;28;20609;-48
2023/12/23 08:30:36;;;;;;;25.48;14.63;;;;;;;9.02;52.91;96322.19;10279493;28;21077;-48
2023/12/23 08:35:35;;;;;;;28.88;16.05;;;;;;;8.88;55.01;96382.81;10279439;28;20065;-49
2023/12/23 08:40:34;;;;;;;31.15;19.55;;;;;;;8.41;56.75;96425.75;10281229;28;20033;-49
2023/12/23 08:45:33;;;;;;;18.77;11.23;;;;;;;7.75;58.54;96477.34;10280189;28;20145;-49
2023/12/23 08:50:32;;;;;;;15.80;9.48;;;;;;;7.35;61.74;96499.22;10279381;28;20021;-54
2023/12/23 08:55:31;;;;;;;13.32;8.18;;;;;;;6.73;67.75;96501.41;10281100;28;20030;-48
2023/12/23 09:00:30;;;;;;;14.35;8.77;;;;;;;6.74;72.39;96522.88;10278875;28;20528;-48
2023/12/23 09:05:29;;;;;;;10.20;7.82;;;;;;;5.63;77.46;96519.84;10281633;28;20073;-50
2023/12/23 09:10:28;;;;;;;9.60;7.35;;;;;;;5.72;78.25;96545.56;10287665;28;20018;-50
2023/12/23 09:15:27;;;;;;;13.88;7.20;;;;;;;5.96;80.26;96571.25;10286674;28;20043;-49
2023/12/23 09:20:28;;;;;;;11.13;6.32;;;;;;;6.06;80.34;96542.91;10287619;28;20121;-50
2023/12/23 09:25:27;;;;;;;7.22;5.03;;;;;;;6.64;82.12;96557.31;10289369;28;20547;-49
2023/12/23 09:30:26;;;;;;;6.85;5.22;;;;;;;6.62;81.38;96598.53;10290154;28;20512;-49
2023/12/23 09:35:25;;;;;;;10.40;5.85;;;;;;;6.46;80.81;96596.88;10288957;28;20037;-49
2023/12/23 09:40:24;;;;;;;10.77;5.93;;;;;;;6.31;82.00;96531.66;10290178;28;20121;-49
2023/12/23 09:45:24;;;;;;;11.57;7.68;;;;;;;6.52;83.25;96529.88;10288721;28;20148;-51
2023/12/23 09:50:23;;;;;;;10.55;6.90;;;;;;;6.70;82.16;96565.88;10288890;28;20140;-50
2023/12/23 09:55:23;;;;;;;17.40;10.60;;;;;;;6.85;83.39;96602.75;10287990;28;20041;-50
2023/12/23 10:00:22;;;;;;;13.40;8.15;;;;;;;6.74;82.94;96580.44;10287813;28;20778;-48
2023/12/23 10:05:21;;;;;;;9.10;6.13;;;;;;;6.73;83.54;96594.19;10287533;28;20116;-49
2023/12/23 10:10:20;;;;;;;12.50;10.00;;;;;;;6.79;85.20;96570.09;10286466;28;20030;-49
2023/12/23 10:15:19;;;;;;;15.57;10.60;;;;;;;6.92;83.92;96581.22;10286052;28;20116;-49
2023/12/23 10:20:18;;;;;;;15.82;10.13;;;;;;;7.37;83.84;96613.59;10282588;28;20541;-49
2023/12/23 10:25:17;;;;;;;15.73;10.35;;;;;;;6.68;83.50;96522.88;10284175;28;20576;-49
2023/12/23 10:30:18;;;;;;;14.25;9.48;;;;;;;7.48;83.88;96641.97;10284393;28;20149;-49
2023/12/23 10:35:19;;;;;;;12.65;8.73;;;;;;;7.35;83.41;96651.47;10278703;28;20483;-49
2023/12/23 10:40:21;;;;;;;14.25;10.07;;;;;;;7.30;84.14;96605.94;10283897;28;20129;-49
2023/12/23 10:45:21;;;;;;;17.60;10.07;;;;;;;7.68;83.59;96679.69;10285566;28;20148;-50
2023/12/23 10:50:21;;;;;;;13.43;8.55;;;;;;;7.88;84.09;96659.75;10286029;28;20053;-50
2023/12/23 10:55:24;;;;;;;17.88;11.80;;;;;;;7.99;83.39;96673.44;10284208;28;20061;-50
2023/12/23 11:00:23;;;;;;;19.08;12.55;;;;;;;7.20;83.42;96484.72;10287236;28;20861;-51
2023/12/23 11:05:23;;;;;;;16.65;10.15;;;;;;;8.49;82.95;96629.88;10314941;28;20108;-49
2023/12/23 11:10:22;;;;;;;17.02;11.65;;;;;;;7.74;82.05;96466.19;10286740;28;20109;-50
2023/12/23 11:15:21;;;;;;;13.68;9.93;;;;;;;8.98;80.37;96626.72;10286094;28;20109;-49
2023/12/23 11:20:35;;;;;;;13.02;8.13;;;;;;;9.42;81.06;96639.94;10280318;28;20048;-49
2023/12/23 11:25:39;;;;;;;9.15;6.28;;;;;;;9.18;76.49;96603.16;10283308;28;20140;-49
2023/12/23 11:30:48;;;;;;;10.38;6.60;;;;;;;9.18;76.07;96634.19;10282522;28;20121;-50
2023/12/23 11:35:51;;;;;;;7.97;5.37;;;;;;;9.27;77.86;96628.91;10284294;28;20125;-49
2023/12/23 11:40:50;;;;;;;9.57;6.97;;;;;;;8.55;76.06;96564.31;10280485;28;20125;-48
2023/12/23 11:45:49;;;;;;;;;;;;;;;9.05;76.71;96651.63;10283768;28;20157;-49
2023/12/23 11:50:53;;;;;;;17.10;10.55;;;;;;;8.07;76.66;96490.78;10283229;28;19920;-48
2023/12/23 11:55:52;;;;;;;22.48;15.85;;;;;;;8.53;74.84;96654.84;10283255;28;20517;-49
2023/12/23 12:00:53;;;;;;;15.43;9.73;;;;;;;7.22;73.60;96508.78;10282997;28;20125;-49
2023/12/23 12:05:59;;;;;;;9.77;5.80;;;;;;;6.96;75.68;96689.53;10280211;28;20113;-50
2023/12/23 12:10:58;;;;;;;10.23;5.85;;;;;;;6.51;77.71;96700.81;10280782;28;20497;-55
2023/12/23 12:15:57;;;;;;;8.55;6.53;;;;;;;5.82;78.77;96650.22;10277294;28;21481;-49
2023/12/23 12:20:56;;;;;;;10.57;8.32;;;;;;;6.27;79.27;96699.13;10278548;28;20045;-49
2023/12/23 12:25:57;;;;;;;13.48;9.13;;;;;;;6.06;77.57;96697.44;10282088;28;20556;-51
2023/12/23 12:31:07;;;;;;;9.88;6.90;;;;;;;6.16;78.89;96717.16;10280013;28;20069;-49
2023/12/23 12:36:11;;;;;;;10.48;6.97;;;;;;;6.40;80.56;96721.47;10280067;28;20057;-51
2023/12/23 12:41:12;;;;;;;10.38;7.57;;;;;;;6.64;77.41;96746.34;10280334;28;20154;-51
2023/12/23 12:46:14;;;;;;;4.32;3.88;;;;;;;6.38;74.46;96726.59;10278378;28;20132;-49
2023/12/23 12:51:15;;;;;;;8.25;6.25;;;;;;;5.54;74.93;96668.22;10279378;28;20097;-49
2023/12/23 12:56:20;;;;;;;5.78;4.80;;;;;;;5.98;75.31;96778.13;10280865;28;20514;-50
2023/12/23 13:01:20;;;;;;;4.07;3.67;;;;;;;5.46;75.65;96792.56;10278255;28;20184;-49
2023/12/23 13:06:19;;;;;;;6.32;5.53;;;;;;;5.24;75.85;96776.19;10282111;28;20665;-51
2023/12/23 13:11:19;;;;;;;9.82;6.32;;;;;;;5.41;76.33;96741.09;10282903;28;20520;-51
2023/12/23 13:16:18;;;;;;;9.65;7.35;;;;;;;5.76;76.20;96773.78;10278175;28;20476;-51
2023/12/23 13:21:17;;;;;;;5.78;4.80;;;;;;;5.83;75.02;96783.22;10280869;28;20164;-49
2023/12/23 13:26:16;;;;;;;8.95;6.15;;;;;;;5.96;74.67;96803.00;10280289;28;20038;-49
2023/12/23 13:31:15;;;;;;;14.30;9.65;;;;;;;6.14;75.57;96799.63;10279998;28;20076;-50
2023/12/23 13:36:14;;;;;;;13.98;10.35;;;;;;;6.13;75.08;96779.00;10281273;28;20084;-50
2023/12/23 13:41:18;;;;;;;13.85;9.00;;;;;;;6.17;75.16;96758.38;10280023;28;20957;-51
2023/12/23 13:46:17;;;;;;;13.43;9.60;;;;;;;6.21;74.84;96776.41;10281427;28;20519;-50
2023/12/23 13:51:16;;;;;;;13.63;8.90;;;;;;;6.35;74.12;96791.03;10281251;28;20109;-52
2023/12/23 13:56:15;;;;;;;13.15;7.60;;;;;;;5.91;74.37;96736.91;10283133;28;20113;-50
2023/12/23 14:01:14;;;;;;;11.07;8.50;;;;;;;5.64;74.49;96693.97;10285980;28;20034;-49
2023/12/23 14:06:13;;;;;;;12.15;7.20;;;;;;;6.05;74.00;96762.69;10287984;28;20088;-51
2023/12/23 14:11:12;;;;;;;13.45;7.55;;;;;;;5.68;72.99;96688.84;10287497;28;20461;-51
2023/12/23 14:16:11;;;;;;;16.45;9.68;;;;;;;5.93;72.75;96724.88;10286780;28;20061;-49
2023/12/23 14:21:10;;;;;;;10.07;8.00;;;;;;;5.87;73.13;96712.88;10287005;28;20417;-49
2023/12/23 14:26:09;;;;;;;12.70;8.10;;;;;;;6.08;73.71;96739.50;10286419;28;20033;-50
2023/12/23 14:31:08;;;;;;;17.10;12.30;;;;;;;5.89;73.16;96716.31;10287376;28;20865;-50
2023/12/23 14:36:08;;;;;;;25.77;17.02;;;;;;;5.42;73.46;96618.47;10285575;28;20113;-51
2023/12/23 14:41:07;;;;;;;20.55;15.32;;;;;;;5.76;73.28;96693.97;10284006;28;20137;-50
2023/12/23 14:46:05;;;;;;;25.40;18.05;;;;;;;5.58;73.53;96689.69;10285787;28;20069;-51
2023/12/23 14:51:05;;;;;;;27.52;20.83;;;;;;;5.18;74.91;96697.31;10282214;28;20022;-50
2023/12/23 14:56:04;;;;;;;;;;;;;;;5.09;76.81;96723.84;10282786;28;20125;-51
2023/12/23 15:01:03;;;;;;;21.27;15.68;;;;;;;4.57;78.34;96682.47;10279707;28;19921;-49
2023/12/23 15:06:02;;;;;;;21.10;14.38;;;;;;;4.47;79.09;96681.53;10281152;28;20104;-50
2023/12/23 15:11:03;;;;;;;;;;;;;;;4.54;79.04;96718.41;10284430;28;20525;-51
2023/12/23 15:16:04;;;;;;;24.45;18.65;;;;;;;4.52;79.13;96693.56;10282468;28;19952;-49
2023/12/23 15:21:04;;;;;;;38.88;25.88;;;;;;;4.49;79.52;96663.56;10286313;28;20117;-50
2023/12/23 15:26:03;;;;;;;36.08;27.48;;;;;;;4.42;79.86;96677.22;10283899;28;20476;-50
2023/12/23 15:31:02;;;;;;;48.53;33.22;;;;;;;4.18;80.06;96635.16;10285570;28;20064;-49
2023/12/23 15:36:01;;;;;;;50.35;33.67;;;;;;;4.38;80.15;96631.81;10287792;28;20062;-49
2023/12/23 15:41:00;;;;;;;57.20;36.80;;;;;;;4.31;80.88;96643.78;10285537;28;20044;-49
2023/12/23 15:45:59;;;;;;;50.55;34.55;;;;;;;4.17;80.33;96596.63;10285384;28;20030;-50
2023/12/23 15:50:58;;;;;;;26.50;16.70;;;;;;;4.03;81.45;96658.13;10283587;28;20519;-49
2023/12/23 15:56:00;;;;;;;21.48;14.98;;;;;;;4.17;80.35;96641.13;10286131;28;20104;-49
2023/12/23 16:01:00;;;;;;;20.88;14.43;;;;;;;4.32;79.79;96653.22;10282588;28;20542;-50
2023/12/23 16:05:58;;;;;;;;;;;;;;;4.44;79.63;96655.00;10284011;28;20524;-50
2023/12/23 16:10:57;;;;;;;21.77;15.43;;;;;;;4.15;79.16;96601.75;10282012;28;20396;-52
2023/12/23 16:15:56;;;;;;;18.75;15.02;;;;;;;4.34;79.29;96601.84;10281747;28;20113;-51
2023/12/23 16:20:55;;;;;;;15.05;12.35;;;;;;;4.31;79.41;96605.25;10280136;28;20050;-50
2023/12/23 16:25:54;;;;;;;8.52;7.47;;;;;;;4.54;79.03;96592.50;10278741;28;20428;-50
2023/12/23 16:30:53;;;;;;;13.65;10.27;;;;;;;4.77;78.29;96623.44;10278790;28;20102;-51
2023/12/23 16:35:53;;;;;;;14.93;9.77;;;;;;;4.72;74.71;96566.03;10280012;28;20065;-50
2023/12/23 16:40:52;;;;;;;10.15;7.68;;;;;;;5.24;72.57;96614.16;10283586;28;20080;-50
2023/12/23 16:45:50;;;;;;;11.77;8.60;;;;;;;5.34;71.06;96590.16;10280664;28;20132;-50
2023/12/23 16:50:50;;;;;;;8.90;7.50;;;;;;;5.69;71.34;96561.84;10282247;28;20022;-50
2023/12/23 16:55:49;;;;;;;9.90;5.85;;;;;;;5.68;68.22;96554.16;10281240;28;20057;-50
2023/12/23 17:00:48;;;;;;;11.27;7.60;;;;;;;5.79;68.29;96534.41;10282423;28;20109;-49
2023/12/23 17:05:47;;;;;;;18.70;11.30;;;;;;;5.69;67.01;96505.22;10282155;28;20141;-50
2023/12/23 17:10:46;;;;;;;8.15;6.45;;;;;;;5.98;65.79;96542.94;10282430;28;20121;-49
2023/12/23 17:15:45;;;;;;;6.05;5.35;;;;;;;6.22;64.37;96596.09;10282574;28;20026;-50
2023/12/23 17:20:44;;;;;;;6.90;5.28;;;;;;;6.47;64.32;96594.31;10282844;28;20112;-49
2023/12/23 17:25:43;;;;;;;8.60;6.82;;;;;;;6.73;63.38;96601.09;10279523;28;20084;-50
2023/12/23 17:30:41;;;;;;;9.77;8.15;;;;;;;6.72;61.94;96577.00;10286543;28;20125;-52
2023/12/23 17:35:41;;;;;;;7.13;6.43;;;;;;;6.47;61.10;96518.69;10291473;28;20109;-50
2023/12/23 17:40:42;;;;;;;5.90;5.13;;;;;;;6.77;60.95;96546.91;10291559;28;20076;-50
2023/12/23 17:45:42;;;;;;;7.25;6.43;;;;;;;6.91;61.58;96541.66;10287552;28;20061;-50
2023/12/23 17:50:42;;;;;;;7.68;5.78;;;;;;;6.64;61.00;96472.25;10282018;28;20117;-49
2023/12/23 17:55:42;;;;;;;6.80;6.15;;;;;;;6.78;60.36;96520.25;10281401;28;20121;-49
2023/12/23 18:00:42;;;;;;;8.98;6.70;;;;;;;7.10;60.38;96523.50;10282245;28;20181;-49
2023/12/23 18:05:41;;;;;;;6.30;5.57;;;;;;;6.99;60.81;96526.16;10285428;28;20036;-49
2023/12/23 18:10:40;;;;;;;15.45;6.68;;;;;;;7.18;60.56;96530.31;10288331;28;20034;-51
2023/12/23 18:15:39;;;;;;;5.90;5.30;;;;;;;7.59;60.25;96574.75;10301942;28;20021;-50
2023/12/23 18:20:39;;;;;;;6.28;5.28;;;;;;;7.18;60.00;96504.50;10284570;28;20138;-50
2023/12/23 18:25:38;;;;;;;;;;;;;;;7.73;59.32;96583.22;10287104;28;20061;-50
2023/12/23 18:30:36;;;;;;;13.85;10.25;;;;;;;7.77;59.69;96586.66;10281989;28;19917;-52
2023/12/23 18:35:35;;;;;;;23.17;16.85;;;;;;;7.55;58.49;96565.34;10292251;28;20740;-52
2023/12/23 18:40:36;;;;;;;11.98;9.40;;;;;;;7.54;58.83;96592.84;10280885;28;20112;-49
2023/12/23 18:45:36;;;;;;;11.57;7.55;;;;;;;7.55;58.48;96566.19;10285773;28;20125;-49
2023/12/23 18:50:36;;;;;;;10.35;7.63;;;;;;;7.44;59.10;96550.78;10286763;28;20267;-50
2023/12/23 18:55:36;;;;;;;5.95;5.30;;;;;;;7.42;58.57;96523.28;10285261;28;20824;-52
2023/12/23 19:00:36;;;;;;;9.50;7.55;;;;;;;7.36;59.17;96593.00;10283411;28;20635;-50
2023/12/23 19:05:37;;;;;;;11.05;7.20;;;;;;;7.38;59.20;96596.38;10285449;28;20108;-52
2023/12/23 19:10:42;;;;;;;11.73;8.65;;;;;;;7.75;58.39;96611.63;10285713;28;20060;-50
2023/12/23 19:15:40;;;;;;;6.90;6.13;;;;;;;7.99;58.20;96632.09;10284796;28;20541;-51
2023/12/23 19:20:39;;;;;;;8.40;6.28;;;;;;;7.91;58.20;96596.88;10285559;28;20509;-52
2023/12/23 19:25:38;;;;;;;6.18;5.30;;;;;;;8.49;57.56;96622.97;10286184;28;20030;-51
2023/12/23 19:30:37;;;;;;;7.40;6.35;;;;;;;8.15;56.69;96575.94;10283500;28;20555;-52
2023/12/23 19:35:36;;;;;;;8.85;6.72;;;;;;;7.64;56.78;96434.44;10284069;28;20096;-50
2023/12/23 19:40:35;;;;;;;4.88;4.45;;;;;;;8.34;56.76;96602.50;10284707;28;20069;-49
2023/12/23 19:45:34;;;;;;;7.50;5.65;;;;;;;7.49;56.61;96447.50;10285097;28;20120;-50
2023/12/23 19:50:33;;;;;;;12.82;9.32;;;;;;;8.67;57.36;96595.22;10285145;28;20552;-50
2023/12/23 19:55:32;;;;;;;11.73;9.43;;;;;;;8.82;57.42;96631.22;10285175;28;20116;-52
2023/12/23 20:00:31;;;;;;;8.68;5.65;;;;;;;8.46;57.30;96604.94;10283755;28;20853;-52
2023/12/23 20:05:30;;;;;;;8.68;6.35;;;;;;;8.77;58.20;96663.22;10284583;28;20381;-51
2023/12/23 20:10:29;;;;;;;;;;;;;;;8.85;58.02;96658.78;10283909;28;20057;-52
2023/12/23 20:15:28;;;;;;;8.43;6.00;;;;;;;8.70;58.55;96641.72;10281525;28;19940;-51
2023/12/23 20:20:27;;;;;;;;;;;;;;;8.85;58.19;96666.53;10281977;28;20129;-51
2023/12/23 20:25:26;;;;;;;7.85;5.10;;;;;;;8.42;57.90;96600.66;10282703;28;19921;-49
2023/12/23 20:30:27;;;;;;;6.80;5.68;;;;;;;8.94;57.93;96671.63;10283193;28;20112;-53
2023/12/23 20:35:26;;;;;;;6.85;5.40;;;;;;;8.87;58.12;96644.09;10279219;28;20120;-51
2023/12/23 20:40:25;;;;;;;7.55;5.32;;;;;;;8.93;57.77;96654.38;10279821;28;20049;-49
2023/12/23 20:45:24;;;;;;;9.40;5.85;;;;;;;9.02;58.15;96666.34;10282031;28;20120;-50
2023/12/23 20:50:23;;;;;;;6.55;4.45;;;;;;;9.01;58.53;96686.19;10280980;28;20030;-49
2023/12/23 20:55:22;;;;;;;8.43;6.10;;;;;;;8.64;58.31;96611.59;10278957;28;20064;-51
2023/12/23 21:00:21;;;;;;;9.00;5.95;;;;;;;9.22;58.80;96708.38;10279840;28;20026;-52
2023/12/23 21:05:21;;;;;;;11.30;5.75;;;;;;;9.34;58.19;96717.75;10284555;28;20158;-51
2023/12/23 21:10:20;;;;;;;6.80;5.57;;;;;;;9.38;58.02;96705.63;10287658;28;20077;-50
2023/12/23 21:15:19;;;;;;;12.23;5.18;;;;;;;9.29;57.33;96704.84;10288258;28;20130;-49
2023/12/23 21:20:18;;;;;;;11.18;6.22;;;;;;;9.06;57.03;96647.31;10289706;28;20064;-53
2023/12/23 21:25:17;;;;;;;9.57;5.55;;;;;;;9.66;57.19;96738.03;10288904;28;20066;-51
2023/12/23 21:30:16;;;;;;;8.85;5.45;;;;;;;9.81;55.77;96749.06;10286752;28;20124;-50
2023/12/23 21:35:15;;;;;;;8.48;5.03;;;;;;;9.68;55.76;96720.75;10284652;28;20141;-48
2023/12/23 21:40:14;;;;;;;6.20;5.00;;;;;;;9.99;54.84;96777.31;10288087;28;20061;-49
2023/12/23 21:45:13;;;;;;;7.13;4.47;;;;;;;9.88;54.15;96719.59;10291420;28;20080;-50
2023/12/23 21:50:14;;;;;;;4.75;4.35;;;;;;;9.97;53.25;96720.31;10288570;28;20064;-52
2023/12/23 21:55:13;;;;;;;4.97;4.47;;;;;;;10.28;52.95;96755.25;10287754;28;20054;-51
2023/12/23 22:00:12;;;;;;;6.93;4.05;;;;;;;9.73;53.10;96672.31;10288031;28;20077;-49
2023/12/23 22:05:12;;;;;;;6.78;5.30;;;;;;;10.23;52.78;96752.75;10287880;28;20117;-50
2023/12/23 22:10:12;;;;;;;7.85;5.65;;;;;;;10.39;52.82;96767.16;10285910;28;20064;-50
2023/12/23 22:15:11;;;;;;;6.85;4.95;;;;;;;10.40;52.83;96765.44;10287925;28;20072;-49
2023/12/23 22:20:10;;;;;;;7.82;5.68;;;;;;;10.28;52.68;96755.25;10286475;28;20064;-51
2023/12/23 22:25:09;;;;;;;5.45;4.85;;;;;;;10.34;53.36;96787.13;10286999;28;20117;-51
2023/12/23 22:30:09;;;;;;;7.00;5.00;;;;;;;10.28;53.59;96763.03;10286347;28;20052;-49
2023/12/23 22:35:08;;;;;;;5.20;4.65;;;;;;;9.38;53.32;96617.59;10286595;28;20045;-50
2023/12/23 22:40:07;;;;;;;6.22;4.70;;;;;;;10.18;52.99;96760.59;10306464;28;20182;-50
2023/12/23 22:45:06;;;;;;;;;;;;;;;10.29;53.17;96773.41;10286836;28;20109;-49
2023/12/23 22:50:06;;;;;;;5.68;5.18;;;;;;;10.23;53.06;96762.25;10286438;28;19917;-50
2023/12/23 22:55:06;;;;;;;6.07;4.80;;;;;;;10.11;52.41;96753.78;10286355;28;20072;-49
2023/12/23 23:00:12;;;;;;;;;;;;;;;10.24;52.38;96775.22;10284615;28;20145;-49
2023/12/23 23:05:11;;;;;;;5.55;4.78;;;;;;;10.16;52.80;96762.34;10281150;28;20030;-51
2023/12/23 23:10:10;;;;;;;5.38;4.25;;;;;;;9.14;51.72;96586.81;10286609;28;20487;-50
2023/12/23 23:15:09;;;;;;;5.88;5.00;;;;;;;10.32;51.78;96788.03;10282973;28;20053;-50
2023/12/23 23:20:08;;;;;;;;;;;;;;;10.41;51.38;96799.13;10280712;28;20574;-52
2023/12/23 23:25:07;;;;;;;7.05;5.30;;;;;;;10.36;51.45;96779.34;10323899;28;20403;-49